Time;durP1;ratioP1;P1;durP2;ratioP2;P2;SDS_P1;SDS_P2;PMS_P1;PMS_P2;Temp;Humidity;BMP_temperature;BMP_pressure;BME280_temperature;BME280_humidity;BME280_pressure;Samples;Min_cycle;Max_cycle;Signal;HPM_P1;HPM_P2
2023/05/25 00:01:36;;;;;;;;;;;8.80;90.60;;;;;;4992286;28;20012;-89
2023/05/25 00:04:03;;;;;;;;;;;8.80;90.70;;;;;;4989783;28;19972;-89
2023/05/25 00:06:31;;;;;;;;;;;8.70;91.00;;;;;;4991373;28;19921;-89
2023/05/25 00:08:58;;;;;;;;;;;8.70;91.20;;;;;;4986739;28;20020;-89
2023/05/25 00:11:25;;;;;;;;;;;8.70;90.80;;;;;;4989074;28;19922;-88
2023/05/25 00:13:52;;;;;;;;;;;8.70;90.50;;;;;;5003660;28;20383;-89
2023/05/25 00:16:19;;;;;;;;;;;8.80;90.60;;;;;;4979420;28;20340;-89
2023/05/25 00:18:47;;;;;;;;;;;8.80;91.20;;;;;;4993643;28;20040;-89
2023/05/25 00:21:14;;;;;;;;;;;8.80;90.60;;;;;;5007478;28;19925;-89
2023/05/25 00:23:42;;;;;;;;;;;8.90;90.50;;;;;;4990502;28;20025;-89
2023/05/25 00:26:08;;;;;;;;;;;8.90;90.40;;;;;;5006193;28;19925;-89
2023/05/25 00:28:35;;;;;;;;;;;9.00;90.90;;;;;;4995813;28;20650;-89
2023/05/25 00:31:02;;;;;;;;;;;9.00;90.70;;;;;;4987610;28;19925;-89
2023/05/25 00:33:29;;;;;;;;;;;9.10;90.90;;;;;;4993678;28;19952;-88
2023/05/25 00:35:57;;;;;;;;;;;9.20;91.10;;;;;;5007979;28;19972;-89
2023/05/25 00:38:24;;;;;;;;;;;9.20;91.20;;;;;;5012469;28;19961;-88
2023/05/25 00:40:55;;;;;;;;;;;9.30;91.20;;;;;;5010212;28;20012;-88
2023/05/25 00:43:22;;;;;;;;;;;9.40;91.80;;;;;;4988480;28;20367;-89
2023/05/25 00:45:50;;;;;;;;;;;9.50;91.40;;;;;;5003159;28;20458;-89
2023/05/25 00:48:17;;;;;;;;;;;9.60;91.60;;;;;;4988323;28;19936;-89
2023/05/25 00:50:44;;;;;;;;;;;9.60;91.20;;;;;;4988729;28;20004;-88
2023/05/25 00:53:12;;;;;;;;;;;9.70;90.90;;;;;;4987690;28;19925;-88
2023/05/25 00:55:49;;;;;;;;;;;9.70;90.80;;;;;;4993169;28;19929;-88
2023/05/25 00:58:19;;;;;;;;;;;9.80;91.10;;;;;;4981934;28;19925;-89
2023/05/25 01:00:48;;;;;;;;;;;9.80;91.40;;;;;;4995477;28;20362;-88
2023/05/25 01:03:20;;;;;;;;;;;9.80;91.50;;;;;;4985913;28;19929;-88
2023/05/25 01:05:47;;;;;;;;;;;9.90;91.60;;;;;;5008315;28;19933;-88
2023/05/25 01:08:16;;;;;;;;;;;9.90;92.00;;;;;;4987859;28;19925;-88
2023/05/25 01:10:45;;;;;;;;;;;10.00;92.00;;;;;;4984152;28;20659;-88
2023/05/25 01:13:12;;;;;;;;;;;10.00;91.80;;;;;;4988677;28;19925;-88
2023/05/25 01:15:38;;;;;;;;;;;10.10;91.90;;;;;;4983529;28;20301;-88
2023/05/25 01:18:05;;;;;;;;;;;10.10;92.10;;;;;;5002697;28;19930;-88
2023/05/25 01:20:32;;;;;;;;;;;10.10;92.10;;;;;;4990146;28;19937;-88
2023/05/25 01:23:01;;;;;;;;;;;10.10;91.90;;;;;;5012337;28;19925;-88
2023/05/25 01:25:46;;;;;;;;;;;10.00;92.10;;;;;;4992123;28;19926;-89
2023/05/25 01:28:19;;;;;;;;;;;10.00;92.30;;;;;;4991543;28;19964;-88
2023/05/25 01:30:47;;;;;;;;;;;10.00;92.40;;;;;;5004830;28;20736;-88
2023/05/25 01:33:15;;;;;;;;;;;10.00;92.90;;;;;;4985593;28;19948;-88
2023/05/25 01:35:43;;;;;;;;;;;10.00;92.90;;;;;;5004234;28;19925;-88
2023/05/25 01:38:10;;;;;;;;;;;10.00;93.10;;;;;;4990694;28;20630;-88
2023/05/25 01:40:37;;;;;;;;;;;10.00;93.30;;;;;;4992828;28;19965;-89
2023/05/25 01:43:03;;;;;;;;;;;10.00;93.40;;;;;;4993316;28;19963;-88
2023/05/25 01:45:31;;;;;;;;;;;9.90;93.50;;;;;;4992575;28;19955;-88
2023/05/25 01:48:11;;;;;;;;;;;10.00;93.60;;;;;;4990070;28;19922;-89
2023/05/25 01:50:44;;;;;;;;;;;9.90;93.50;;;;;;5009464;28;20012;-89
2023/05/25 01:53:15;;;;;;;;;;;9.90;93.70;;;;;;4991627;28;19922;-88
2023/05/25 01:55:45;;;;;;;;;;;9.90;93.40;;;;;;5003913;28;19935;-88
2023/05/25 01:58:13;;;;;;;;;;;9.80;93.70;;;;;;4989321;28;20019;-88
2023/05/25 02:00:40;;;;;;;;;;;9.80;93.80;;;;;;4995475;28;19956;-88
2023/05/25 02:03:08;;;;;;;;;;;9.80;94.20;;;;;;4989263;28;19921;-89
2023/05/25 02:05:35;;;;;;;;;;;9.70;94.30;;;;;;4987498;28;20008;-89
2023/05/25 02:08:02;;;;;;;;;;;9.70;94.30;;;;;;4979015;28;19929;-89
2023/05/25 02:10:29;;;;;;;;;;;9.70;94.50;;;;;;4995647;28;19922;-90
2023/05/25 02:12:56;;;;;;;;;;;9.60;94.40;;;;;;4993807;28;19971;-90
2023/05/25 02:15:23;;;;;;;;;;;9.60;94.70;;;;;;5006780;28;19991;-89
2023/05/25 02:17:50;;;;;;;;;;;9.50;94.70;;;;;;4984557;28;20004;-88
2023/05/25 02:20:17;;;;;;;;;;;9.60;95.00;;;;;;4981500;28;20379;-89
2023/05/25 02:22:43;;;;;;;;;;;9.50;95.00;;;;;;4991857;28;19926;-88
2023/05/25 02:25:11;;;;;;;;;;;9.50;95.00;;;;;;4987894;28;20322;-88
2023/05/25 02:27:38;;;;;;;;;;;9.50;95.30;;;;;;4990145;28;20423;-88
2023/05/25 02:30:05;;;;;;;;;;;9.40;95.30;;;;;;4988921;28;21906;-88
2023/05/25 02:32:32;;;;;;;;;;;9.50;95.40;;;;;;4986812;28;20024;-88
2023/05/25 02:34:59;;;;;;;;;;;9.40;95.30;;;;;;4989974;28;19948;-88
2023/05/25 02:37:26;;;;;;;;;;;9.40;95.40;;;;;;4989090;28;20279;-88
2023/05/25 02:39:53;;;;;;;;;;;9.40;95.50;;;;;;4989004;28;20012;-88
2023/05/25 02:42:19;;;;;;;;;;;9.30;95.60;;;;;;4992200;28;19922;-88
2023/05/25 02:44:47;;;;;;;;;;;9.30;95.70;;;;;;4994157;28;20313;-88
2023/05/25 02:47:14;;;;;;;;;;;9.30;95.80;;;;;;5007496;28;20495;-88
2023/05/25 02:49:41;;;;;;;;;;;9.20;95.80;;;;;;5009043;28;19937;-88
2023/05/25 02:52:08;;;;;;;;;;;9.20;96.00;;;;;;4991631;28;20008;-88
2023/05/25 02:54:35;;;;;;;;;;;9.20;96.00;;;;;;4989050;28;19921;-88
2023/05/25 02:57:02;;;;;;;;;;;9.10;96.10;;;;;;4993891;28;19965;-89
2023/05/25 02:59:29;;;;;;;;;;;9.10;96.40;;;;;;5008957;28;20431;-89
2023/05/25 03:01:57;;;;;;;;;;;9.10;96.40;;;;;;4988678;28;19925;-88
2023/05/25 03:04:24;;;;;;;;;;;9.10;96.60;;;;;;4989830;28;19932;-88
2023/05/25 03:06:51;;;;;;;;;;;9.00;96.70;;;;;;4989319;28;20052;-89
2023/05/25 03:09:18;;;;;;;;;;;9.10;97.20;;;;;;4994367;28;19952;-89
2023/05/25 03:11:45;;;;;;;;;;;9.00;97.20;;;;;;4997111;28;19921;-89
2023/05/25 03:14:12;;;;;;;;;;;9.00;97.30;;;;;;4988032;28;19925;-89
2023/05/25 03:16:38;;;;;;;;;;;9.10;97.40;;;;;;4991368;28;19991;-89
2023/05/25 03:19:06;;;;;;;;;;;9.10;97.30;;;;;;4982801;28;19999;-89
2023/05/25 03:21:33;;;;;;;;;;;9.00;97.10;;;;;;5005641;28;19940;-88
2023/05/25 03:23:59;;;;;;;;;;;9.00;97.20;;;;;;4988452;28;20011;-89
2023/05/25 03:26:27;;;;;;;;;;;9.00;97.30;;;;;;4987589;28;19929;-89
2023/05/25 03:28:54;;;;;;;;;;;9.00;97.30;;;;;;4986416;28;20301;-89
2023/05/25 03:31:22;;;;;;;;;;;9.00;97.30;;;;;;5004710;28;19981;-88
2023/05/25 03:33:49;;;;;;;;;;;9.00;97.30;;;;;;4976297;28;19925;-89
2023/05/25 03:36:18;;;;;;;;;;;9.00;97.20;;;;;;4990932;28;20051;-88
2023/05/25 03:38:46;;;;;;;;;;;9.00;97.50;;;;;;4991941;28;20008;-88
2023/05/25 03:41:12;;;;;;;;;;;9.00;98.00;;;;;;4986704;28;19936;-89
2023/05/25 03:43:39;;;;;;;;;;;9.10;98.00;;;;;;5014922;28;19924;-88
2023/05/25 03:46:06;;;;;;;;;;;9.10;98.10;;;;;;4980292;28;19926;-89
2023/05/25 03:48:33;;;;;;;;;;;9.10;98.30;;;;;;4988595;28;20036;-89
2023/05/25 03:51:00;;;;;;;;;;;9.10;98.50;;;;;;4995221;28;20687;-88
2023/05/25 03:53:27;;;;;;;;;;;9.20;98.50;;;;;;4975613;28;19921;-87
2023/05/25 03:55:53;;;;;;;;;;;9.20;98.70;;;;;;5006665;28;20301;-87
2023/05/25 03:58:20;;;;;;;;;;;9.20;98.60;;;;;;4992132;28;19925;-88
2023/05/25 04:00:51;;;;;;;;;;;9.30;98.70;;;;;;4987950;28;19922;-88
2023/05/25 04:03:19;;;;;;;;;;;9.30;98.70;;;;;;4982460;28;20617;-88
2023/05/25 04:05:46;;;;;;;;;;;9.30;98.80;;;;;;4985975;28;20000;-88
2023/05/25 04:08:16;;;;;;;;;;;9.40;98.70;;;;;;4987452;28;19925;-88
2023/05/25 04:10:44;;;;;;;;;;;9.40;98.90;;;;;;5000215;28;19929;-88
2023/05/25 04:13:11;;;;;;;;;;;9.50;98.90;;;;;;5005561;28;19925;-89
2023/05/25 04:15:38;;;;;;;;;;;9.50;99.00;;;;;;5010121;28;19921;-89
2023/05/25 04:18:05;;;;;;;;;;;9.50;99.00;;;;;;4986724;28;19921;-89
2023/05/25 04:20:31;;;;;;;;;;;9.50;99.40;;;;;;4985010;28;19926;-88
2023/05/25 04:22:58;;;;;;;;;;;9.60;99.10;;;;;;5003785;28;19921;-90
2023/05/25 04:25:25;;;;;;;;;;;9.70;99.10;;;;;;4989104;28;19928;-90
2023/05/25 04:27:55;;;;;;;;;;;9.80;99.50;;;;;;4984731;28;20301;-90
2023/05/25 04:30:22;;;;;;;;;;;9.90;99.20;;;;;;5007653;28;19925;-89
2023/05/25 04:32:49;;;;;;;;;;;10.00;98.70;;;;;;4988704;28;19925;-89
2023/05/25 04:35:19;;;;;;;;;;;10.00;98.40;;;;;;4986529;28;20397;-89
2023/05/25 04:37:47;;;;;;;;;;;10.10;98.40;;;;;;4987843;28;19922;-90
2023/05/25 04:40:14;;;;;;;;;;;10.20;98.10;;;;;;5000074;28;19929;-90
2023/05/25 04:42:40;;;;;;;;;;;10.30;98.10;;;;;;4990775;28;19948;-89
2023/05/25 04:45:10;;;;;;;;;;;10.40;98.30;;;;;;4994919;28;20520;-90
2023/05/25 04:47:39;;;;;;;;;;;10.50;98.10;;;;;;5012280;28;20167;-88
2023/05/25 04:50:08;;;;;;;;;;;10.60;97.80;;;;;;5003749;28;19922;-88
2023/05/25 04:52:35;;;;;;;;;;;10.70;97.70;;;;;;4989587;28;19972;-87
2023/05/25 04:55:02;;;;;;;;;;;10.80;96.70;;;;;;4987709;28;20288;-87
2023/05/25 04:57:30;;;;;;;;;;;10.80;96.40;;;;;;4993530;28;19984;-87
2023/05/25 04:59:57;;;;;;;;;;;10.90;96.50;;;;;;5012602;28;19973;-88
2023/05/25 05:02:24;;;;;;;;;;;10.90;96.30;;;;;;4990899;28;20087;-89
2023/05/25 05:04:52;;;;;;;;;;;11.00;96.20;;;;;;5004030;28;19925;-88
2023/05/25 05:07:22;;;;;;;;;;;11.10;95.80;;;;;;4989662;28;19981;-88
2023/05/25 05:09:49;;;;;;;;;;;11.20;95.60;;;;;;4987702;28;20007;-87
2023/05/25 05:12:16;;;;;;;;;;;11.30;95.00;;;;;;5008762;28;20660;-87
2023/05/25 05:14:43;;;;;;;;;;;11.40;94.90;;;;;;4987620;28;20539;-87
2023/05/25 05:17:10;;;;;;;;;;;11.50;94.90;;;;;;4989997;28;20017;-88
2023/05/25 05:19:37;;;;;;;;;;;11.60;94.40;;;;;;4994119;28;19929;-89
2023/05/25 05:22:04;;;;;;;;;;;11.70;94.30;;;;;;4989813;28;19928;-87
2023/05/25 05:24:31;;;;;;;;;;;11.90;93.80;;;;;;4989766;28;19969;-88
2023/05/25 05:26:57;;;;;;;;;;;12.00;93.40;;;;;;4991202;28;20337;-88
2023/05/25 05:29:26;;;;;;;;;;;12.10;93.10;;;;;;4991575;28;19972;-88
2023/05/25 05:31:54;;;;;;;;;;;12.30;91.90;;;;;;4988840;28;19926;-88
2023/05/25 05:34:21;;;;;;;;;;;12.30;91.60;;;;;;4990803;28;20271;-88
2023/05/25 05:36:48;;;;;;;;;;;12.40;91.20;;;;;;5011021;28;19921;-88
2023/05/25 05:39:23;;;;;;;;;;;12.40;90.70;;;;;;5001806;28;20278;-89
2023/05/25 05:41:50;;;;;;;;;;;12.50;91.70;;;;;;4990519;28;19993;-89
2023/05/25 05:44:17;;;;;;;;;;;12.60;91.00;;;;;;4991314;28;19922;-89
2023/05/25 05:46:44;;;;;;;;;;;12.70;90.50;;;;;;4987603;28;19933;-89
2023/05/25 05:49:11;;;;;;;;;;;12.70;90.00;;;;;;4990757;28;19921;-89
2023/05/25 05:51:38;;;;;;;;;;;12.70;90.10;;;;;;4998907;28;19972;-89
2023/05/25 05:54:05;;;;;;;;;;;12.80;89.50;;;;;;4991429;28;19996;-89
2023/05/25 05:56:31;;;;;;;;;;;12.80;89.50;;;;;;4993638;28;19981;-89
2023/05/25 05:58:58;;;;;;;;;;;12.90;89.30;;;;;;4988539;28;19937;-89
2023/05/25 06:01:25;;;;;;;;;;;12.90;89.10;;;;;;4985036;28;20000;-90
2023/05/25 06:03:53;;;;;;;;;;;12.90;89.40;;;;;;5005156;28;20001;-89
2023/05/25 06:06:20;;;;;;;;;;;13.00;89.20;;;;;;5008755;28;20016;-89
2023/05/25 06:08:47;;;;;;;;;;;13.10;89.30;;;;;;4987911;28;20274;-89
2023/05/25 06:11:14;;;;;;;;;;;13.10;88.60;;;;;;4983394;28;20064;-89
2023/05/25 06:13:40;;;;;;;;;;;13.10;89.00;;;;;;4951024;28;1206208;-89
2023/05/25 06:16:07;;;;;;;;;;;13.10;89.10;;;;;;5007431;28;19921;-89
2023/05/25 06:18:34;;;;;;;;;;;13.20;89.50;;;;;;4999109;28;19961;-90
2023/05/25 06:21:01;;;;;;;;;;;13.20;89.00;;;;;;4990210;28;19926;-89
2023/05/25 06:23:28;;;;;;;;;;;13.40;89.10;;;;;;4994039;28;20754;-90
2023/05/25 06:25:54;;;;;;;;;;;13.50;88.30;;;;;;4996042;28;19925;-89
2023/05/25 06:28:21;;;;;;;;;;;13.60;87.80;;;;;;4993017;28;19932;-89
2023/05/25 06:30:48;;;;;;;;;;;13.80;87.40;;;;;;4992834;28;19969;-89
2023/05/25 06:33:15;;;;;;;;;;;13.90;86.20;;;;;;4990886;28;20755;-88
2023/05/25 06:35:41;;;;;;;;;;;13.90;84.90;;;;;;5004057;28;19921;-89
2023/05/25 06:38:10;;;;;;;;;;;13.90;85.50;;;;;;4997182;28;19925;-89
2023/05/25 06:40:37;;;;;;;;;;;14.00;85.40;;;;;;5003445;28;19933;-89
2023/05/25 06:43:04;;;;;;;;;;;14.00;85.20;;;;;;5007949;28;19957;-89
2023/05/25 06:45:30;;;;;;;;;;;14.00;85.30;;;;;;4992280;28;19928;-89
2023/05/25 06:47:57;;;;;;;;;;;14.00;83.00;;;;;;4988644;28;19922;-89
2023/05/25 06:50:24;;;;;;;;;;;14.10;82.60;;;;;;4981464;28;20005;-89
2023/05/25 06:52:51;;;;;;;;;;;14.10;82.30;;;;;;4988289;28;20260;-89
2023/05/25 06:55:18;;;;;;;;;;;14.10;82.90;;;;;;4991340;28;19922;-89
2023/05/25 06:57:44;;;;;;;;;;;14.10;82.50;;;;;;4998469;28;19976;-88
2023/05/25 07:00:12;;;;;;;;;;;14.10;82.90;;;;;;4990492;28;19957;-89
2023/05/25 07:02:38;;;;;;;;;;;14.10;81.70;;;;;;4994797;28;19925;-89
2023/05/25 07:05:05;;;;;;;;;;;14.10;81.50;;;;;;4985487;28;19926;-89
2023/05/25 07:07:32;;;;;;;;;;;14.20;81.50;;;;;;4989895;28;19972;-89
2023/05/25 07:10:00;;;;;;;;;;;14.30;81.10;;;;;;5009707;28;19925;-89
2023/05/25 07:12:27;;;;;;;;;;;14.30;80.00;;;;;;4987035;28;20012;-89
2023/05/25 07:14:53;;;;;;;;;;;14.30;80.50;;;;;;4990680;28;19926;-89
2023/05/25 07:17:20;;;;;;;;;;;14.30;80.30;;;;;;4996403;28;19925;-89
2023/05/25 07:19:48;;;;;;;;;;;14.40;80.70;;;;;;5005225;28;19922;-89
2023/05/25 07:22:17;;;;;;;;;;;14.50;79.80;;;;;;4989293;28;19925;-88
2023/05/25 07:24:45;;;;;;;;;;;14.50;80.10;;;;;;4989853;28;19932;-89
2023/05/25 07:27:12;;;;;;;;;;;14.50;80.00;;;;;;4978884;28;20446;-89
2023/05/25 07:29:40;;;;;;;;;;;14.60;78.70;;;;;;5007090;28;19960;-89
2023/05/25 07:32:06;;;;;;;;;;;14.60;78.30;;;;;;4987708;28;19977;-89
2023/05/25 07:34:33;;;;;;;;;;;14.60;78.80;;;;;;5002374;28;20738;-89
2023/05/25 07:37:00;;;;;;;;;;;14.70;77.50;;;;;;4989153;28;19921;-89
2023/05/25 07:39:27;;;;;;;;;;;14.70;77.40;;;;;;4996029;28;20337;-89
2023/05/25 07:41:54;;;;;;;;;;;14.70;77.90;;;;;;4992421;28;19980;-89
2023/05/25 07:44:21;;;;;;;;;;;14.80;77.90;;;;;;4994043;28;19980;-88
2023/05/25 07:46:48;;;;;;;;;;;14.90;76.90;;;;;;4984111;28;19921;-89
2023/05/25 07:49:15;;;;;;;;;;;14.90;76.80;;;;;;4997710;28;19971;-89
2023/05/25 07:51:43;;;;;;;;;;;14.90;77.20;;;;;;4987423;28;20383;-89
2023/05/25 07:54:10;;;;;;;;;;;14.90;77.30;;;;;;4986516;28;20327;-89
2023/05/25 07:56:37;;;;;;;;;;;14.90;77.50;;;;;;4987202;28;19925;-89
2023/05/25 07:59:05;;;;;;;;;;;15.00;76.60;;;;;;5000087;28;19926;-88
2023/05/25 08:01:31;;;;;;;;;;;15.00;76.20;;;;;;4981706;28;19932;-89
2023/05/25 08:03:58;;;;;;;;;;;15.20;75.70;;;;;;4994528;28;19921;-89
2023/05/25 08:06:25;;;;;;;;;;;15.20;74.70;;;;;;5000467;28;20297;-89
2023/05/25 08:08:52;;;;;;;;;;;15.20;74.50;;;;;;4990951;28;19976;-89
2023/05/25 08:11:22;;;;;;;;;;;15.30;74.00;;;;;;5005367;28;19932;-89
2023/05/25 08:13:48;;;;;;;;;;;15.30;74.40;;;;;;4996694;28;19939;-89
2023/05/25 08:16:15;;;;;;;;;;;15.50;74.50;;;;;;4993024;28;19968;-89
2023/05/25 08:18:45;;;;;;;;;;;15.70;74.60;;;;;;4993140;28;19925;-89
2023/05/25 08:21:12;;;;;;;;;;;16.10;74.30;;;;;;5011988;28;19929;-89
2023/05/25 08:23:41;;;;;;;;;;;16.50;71.40;;;;;;4996460;28;19925;-90
2023/05/25 08:26:08;;;;;;;;;;;16.50;71.60;;;;;;4996905;28;20366;-89
2023/05/25 08:28:55;;;;;;;;;;;16.90;69.80;;;;;;5003301;28;20325;-90
2023/05/25 08:31:21;;;;;;;;;;;17.10;68.10;;;;;;4990099;28;19925;-89
2023/05/25 08:33:48;;;;;;;;;;;17.10;67.40;;;;;;5011122;28;19925;-90
2023/05/25 08:36:15;;;;;;;;;;;17.00;66.70;;;;;;5000198;28;19997;-87
2023/05/25 08:38:42;;;;;;;;;;;17.10;69.20;;;;;;5015355;28;19933;-87
2023/05/25 08:41:09;;;;;;;;;;;17.50;67.00;;;;;;4991977;28;20374;-87
2023/05/25 08:43:36;;;;;;;;;;;18.00;65.20;;;;;;5009724;28;20473;-87
2023/05/25 08:46:04;;;;;;;;;;;18.00;62.30;;;;;;5003431;28;19953;-87
2023/05/25 08:48:32;;;;;;;;;;;18.00;65.10;;;;;;4988134;28;20629;-87
2023/05/25 08:51:08;;;;;;;;;;;18.20;63.30;;;;;;4986870;28;19937;-87
2023/05/25 08:53:38;;;;;;;;;;;18.20;62.00;;;;;;4991633;28;19929;-87
2023/05/25 08:56:10;;;;;;;;;;;18.00;62.90;;;;;;4981276;28;19922;-87
2023/05/25 08:58:42;;;;;;;;;;;17.80;63.50;;;;;;4989542;28;19929;-87
2023/05/25 09:01:12;;;;;;;;;;;17.70;64.30;;;;;;4988165;28;19925;-86
2023/05/25 09:03:39;;;;;;;;;;;17.40;64.80;;;;;;4991588;28;19940;-87
2023/05/25 09:06:07;;;;;;;;;;;17.40;64.70;;;;;;4986872;28;19936;-87
2023/05/25 09:08:36;;;;;;;;;;;17.40;64.30;;;;;;4989195;28;19980;-87
2023/05/25 09:11:03;;;;;;;;;;;17.50;66.60;;;;;;4978788;28;19933;-87
2023/05/25 09:13:30;;;;;;;;;;;18.10;65.50;;;;;;4994253;28;20000;-87
2023/05/25 09:15:57;;;;;;;;;;;18.80;63.70;;;;;;4979820;28;19976;-88
2023/05/25 09:18:24;;;;;;;;;;;19.20;59.20;;;;;;4986534;28;19925;-87
2023/05/25 09:20:51;;;;;;;;;;;19.60;60.10;;;;;;4989442;28;19922;-87
2023/05/25 09:23:19;;;;;;;;;;;20.00;57.90;;;;;;4992026;28;19925;-87
2023/05/25 09:25:47;;;;;;;;;;;19.90;56.70;;;;;;4987780;28;19948;-87
2023/05/25 09:28:13;;;;;;;;;;;19.60;57.00;;;;;;4998238;28;20008;-87
2023/05/25 09:30:52;;;;;;;;;;;19.40;58.10;;;;;;4990889;28;20538;-87
2023/05/25 09:33:19;;;;;;;;;;;19.60;60.60;;;;;;4985359;28;20000;-87
2023/05/25 09:35:46;;;;;;;;;;;19.90;58.80;;;;;;5009512;28;20020;-87
2023/05/25 09:38:14;;;;;;;;;;;20.30;57.40;;;;;;4998718;28;20691;-87
2023/05/25 09:40:42;;;;;;;;;;;20.40;58.20;;;;;;5001305;28;19932;-88
2023/05/25 09:43:12;;;;;;;;;;;21.00;57.00;;;;;;5006173;28;20392;-87
2023/05/25 09:45:51;;;;;;;;;;;21.70;54.40;;;;;;5010919;28;19921;-87
2023/05/25 09:48:18;;;;;;;;;;;22.00;52.50;;;;;;4981137;28;19922;-87
2023/05/25 09:50:45;;;;;;;;;;;21.70;52.00;;;;;;4982649;28;19922;-88
2023/05/25 09:53:15;;;;;;;;;;;21.30;53.10;;;;;;4982641;28;20335;-87
2023/05/25 09:55:42;;;;;;;;;;;20.60;53.50;;;;;;4989938;28;19980;-88
2023/05/25 09:58:21;;;;;;;;;;;20.30;58.10;;;;;;4984253;28;20779;-87
2023/05/25 10:00:48;;;;;;;;;;;20.90;56.10;;;;;;4994718;28;19921;-87
2023/05/25 10:03:15;;;;;;;;;;;21.70;53.20;;;;;;4995463;28;19944;-88
2023/05/25 10:05:44;;;;;;;;;;;21.80;49.50;;;;;;5011686;28;19932;-87
2023/05/25 10:08:12;;;;;;;;;;;21.40;51.50;;;;;;4991149;28;20000;-87
2023/05/25 10:10:40;;;;;;;;;;;21.60;53.10;;;;;;4994585;28;20632;-87
2023/05/25 10:13:08;;;;;;;;;;;22.00;51.50;;;;;;4990166;28;20862;-88
2023/05/25 10:15:36;;;;;;;;;;;21.90;51.20;;;;;;5002749;28;20385;-88
2023/05/25 10:18:05;;;;;;;;;;;22.00;51.80;;;;;;4989843;28;19926;-88
2023/05/25 10:20:32;;;;;;;;;;;22.60;51.90;;;;;;4993609;28;19922;-88
2023/05/25 10:23:08;;;;;;;;;;;23.00;48.50;;;;;;5014400;28;19956;-87
2023/05/25 10:25:38;;;;;;;;;;;22.50;48.60;;;;;;4989647;28;19925;-88
2023/05/25 10:28:20;;;;;;;;;;;22.20;51.00;;;;;;4993586;28;20738;-87
2023/05/25 10:30:48;;;;;;;;;;;22.10;49.90;;;;;;4993680;28;19934;-88
2023/05/25 10:33:15;;;;;;;;;;;22.40;49.30;;;;;;4991079;28;19921;-87
2023/05/25 10:35:42;;;;;;;;;;;22.20;49.10;;;;;;4986753;28;19998;-87
2023/05/25 10:38:30;;;;;;;;;;;21.90;49.60;;;;;;4991960;28;19921;-87
2023/05/25 10:40:58;;;;;;;;;;;21.20;51.20;;;;;;5005001;28;19925;-88
2023/05/25 10:43:25;;;;;;;;;;;21.20;53.20;;;;;;4992334;28;20458;-87
2023/05/25 10:45:52;;;;;;;;;;;21.30;52.30;;;;;;4989874;28;19926;-88
2023/05/25 10:48:21;;;;;;;;;;;21.50;52.90;;;;;;5004590;28;20279;-88
2023/05/25 10:50:49;;;;;;;;;;;21.60;50.80;;;;;;4992110;28;19922;-87
2023/05/25 10:53:19;;;;;;;;;;;22.00;48.90;;;;;;4981993;28;19976;-88
2023/05/25 10:55:49;;;;;;;;;;;21.60;51.90;;;;;;4993037;28;19925;-88
2023/05/25 10:58:17;;;;;;;;;;;22.00;52.30;;;;;;4993581;28;19932;-88
2023/05/25 11:00:56;;;;;;;;;;;22.20;48.50;;;;;;4993047;28;20644;-87
2023/05/25 11:03:42;;;;;;;;;;;22.20;51.10;;;;;;4986537;28;19932;-88
2023/05/25 11:06:10;;;;;;;;;;;22.30;50.20;;;;;;4989886;28;19933;-88
2023/05/25 11:08:50;;;;;;;;;;;22.80;49.20;;;;;;4992911;28;19933;-88
2023/05/25 11:11:17;;;;;;;;;;;22.70;50.00;;;;;;4983550;28;19937;-88
2023/05/25 11:13:48;;;;;;;;;;;23.20;48.00;;;;;;4985757;28;19925;-88
2023/05/25 11:16:16;;;;;;;;;;;23.10;46.30;;;;;;5000439;28;19929;-88
2023/05/25 11:18:53;;;;;;;;;;;23.10;47.20;;;;;;4985070;28;20325;-88
2023/05/25 11:21:26;;;;;;;;;;;22.60;47.40;;;;;;4990979;28;19925;-88
2023/05/25 11:24:05;;;;;;;;;;;22.90;48.30;;;;;;4989398;28;19925;-88
2023/05/25 11:26:32;;;;;;;;;;;22.80;48.90;;;;;;4992044;28;20248;-89
2023/05/25 11:29:03;;;;;;;;;;;22.70;48.80;;;;;;4994681;28;19935;-88
2023/05/25 11:31:31;;;;;;;;;;;22.80;47.90;;;;;;4996400;28;20227;-88
2023/05/25 11:34:04;;;;;;;;;;;23.20;46.40;;;;;;4993009;28;19977;-89
2023/05/25 11:36:32;;;;;;;;;;;22.50;46.90;;;;;;4994325;28;20547;-88
2023/05/25 11:39:01;;;;;;;;;;;22.50;46.60;;;;;;4989449;28;19928;-88
2023/05/25 11:41:37;;;;;;;;;;;22.50;46.10;;;;;;4986722;28;20012;-88
2023/05/25 11:44:07;;;;;;;;;;;22.30;46.70;;;;;;4988339;28;20661;-88
2023/05/25 11:46:37;;;;;;;;;;;22.30;47.10;;;;;;4989181;28;20371;-89
2023/05/25 11:49:04;;;;;;;;;;;22.10;47.50;;;;;;4990234;28;19925;-88
2023/05/25 11:51:31;;;;;;;;;;;21.80;48.60;;;;;;4991659;28;20495;-88
2023/05/25 11:53:58;;;;;;;;;;;21.90;47.50;;;;;;4988630;28;19926;-88
2023/05/25 11:56:25;;;;;;;;;;;21.40;48.90;;;;;;4997341;28;20032;-88
2023/05/25 11:59:01;;;;;;;;;;;21.40;49.40;;;;;;4989130;28;19926;-89
2023/05/25 12:01:30;;;;;;;;;;;21.10;49.30;;;;;;4991813;28;19948;-89
2023/05/25 12:04:06;;;;;;;;;;;21.10;49.40;;;;;;4990263;28;19930;-88
2023/05/25 12:06:35;;;;;;;;;;;21.00;49.20;;;;;;5012593;28;20378;-89
2023/05/25 12:09:07;;;;;;;;;;;20.80;49.40;;;;;;4991584;28;19928;-88
2023/05/25 12:11:37;;;;;;;;;;;20.50;49.20;;;;;;4994350;28;20350;-88
2023/05/25 12:14:04;;;;;;;;;;;20.10;51.00;;;;;;4992757;28;19948;-88
2023/05/25 12:16:37;;;;;;;;;;;20.60;51.30;;;;;;5007728;28;19980;-89
2023/05/25 12:19:05;;;;;;;;;;;20.70;51.00;;;;;;5003898;28;19918;-88
2023/05/25 12:21:32;;;;;;;;;;;20.90;50.70;;;;;;5018142;28;19921;-89
2023/05/25 12:24:00;;;;;;;;;;;20.50;51.50;;;;;;4994958;28;19925;-87
2023/05/25 12:26:27;;;;;;;;;;;20.40;50.90;;;;;;4992052;28;19930;-89
2023/05/25 12:29:00;;;;;;;;;;;20.80;50.40;;;;;;5001897;28;19996;-89
2023/05/25 12:31:30;;;;;;;;;;;20.90;48.10;;;;;;4998669;28;20012;-88
2023/05/25 12:34:06;;;;;;;;;;;20.40;48.60;;;;;;4989704;28;20382;-88
2023/05/25 12:36:37;;;;;;;;;;;20.20;50.20;;;;;;4991902;28;19922;-90
2023/05/25 12:39:05;;;;;;;;;;;20.00;50.40;;;;;;4979008;28;20016;-88
2023/05/25 12:41:41;;;;;;;;;;;20.10;49.30;;;;;;4991151;28;19922;-89
2023/05/25 12:44:15;;;;;;;;;;;19.90;48.90;;;;;;4996901;28;19995;-89
2023/05/25 12:46:41;;;;;;;;;;;19.80;49.80;;;;;;4995335;28;19922;-89
2023/05/25 12:49:24;;;;;;;;;;;19.70;50.90;;;;;;4995251;28;19928;-90
2023/05/25 12:51:53;;;;;;;;;;;19.90;50.40;;;;;;5012282;28;19928;-90
2023/05/25 12:54:39;;;;;;;;;;;20.50;47.40;;;;;;4989902;28;19929;-90
2023/05/25 12:57:08;;;;;;;;;;;20.40;48.90;;;;;;5001485;28;19974;-89
2023/05/25 12:59:39;;;;;;;;;;;20.60;48.10;;;;;;4996850;28;19932;-89
2023/05/25 13:02:06;;;;;;;;;;;20.50;48.60;;;;;;5009575;28;20339;-90
2023/05/25 13:04:43;;;;;;;;;;;20.40;49.30;;;;;;5008602;28;19921;-90
2023/05/25 13:07:14;;;;;;;;;;;20.60;50.10;;;;;;5006600;28;19929;-89
2023/05/25 13:09:44;;;;;;;;;;;21.00;48.90;;;;;;4991176;28;19947;-91
2023/05/25 13:12:12;;;;;;;;;;;21.20;49.10;;;;;;4996461;28;19932;-91
2023/05/25 13:14:40;;;;;;;;;;;21.10;49.00;;;;;;4987589;28;19925;-91
2023/05/25 13:17:09;;;;;;;;;;;21.10;50.70;;;;;;4995100;28;20238;-91
2023/05/25 13:19:37;;;;;;;;;;;21.30;50.10;;;;;;5021745;28;20286;-90
2023/05/25 13:22:21;;;;;;;;;;;21.90;47.60;;;;;;5008000;28;19925;-91
2023/05/25 13:24:48;;;;;;;;;;;21.40;47.70;;;;;;5003890;28;19922;-91
2023/05/25 13:27:17;;;;;;;;;;;21.70;47.30;;;;;;5000725;28;20417;-91
2023/05/25 13:29:45;;;;;;;;;;;21.80;45.30;;;;;;5001136;28;20006;-90
2023/05/25 13:32:14;;;;;;;;;;;21.70;45.40;;;;;;4997064;28;20877;-91
2023/05/25 13:34:43;;;;;;;;;;;21.60;45.50;;;;;;5016005;28;19965;-90
2023/05/25 13:37:09;;;;;;;;;;;21.60;45.60;;;;;;4997633;28;19972;-90
2023/05/25 13:39:37;;;;;;;;;;;21.70;46.80;;;;;;4998323;28;20048;-90
2023/05/25 13:42:04;;;;;;;;;;;21.80;45.20;;;;;;5007215;28;19921;-91
2023/05/25 13:44:32;;;;;;;;;;;21.60;46.60;;;;;;4997178;28;19964;-91
2023/05/25 13:46:59;;;;;;;;;;;21.80;45.60;;;;;;4995388;28;20230;-91
2023/05/25 13:49:26;;;;;;;;;;;21.40;47.00;;;;;;4991526;28;19928;-90
2023/05/25 13:51:53;;;;;;;;;;;21.60;47.30;;;;;;5013822;28;19980;-91
2023/05/25 13:54:20;;;;;;;;;;;21.70;47.10;;;;;;5017026;28;19925;-90
2023/05/25 13:56:47;;;;;;;;;;;22.00;46.80;;;;;;5002736;28;19969;-90
2023/05/25 13:59:14;;;;;;;;;;;22.20;44.50;;;;;;5006921;28;20607;-91
2023/05/25 14:01:41;;;;;;;;;;;22.10;44.70;;;;;;4995480;28;20333;-90
2023/05/25 14:04:08;;;;;;;;;;;21.70;45.10;;;;;;4992010;28;20087;-89
2023/05/25 14:06:35;;;;;;;;;;;21.80;45.90;;;;;;4995592;28;19926;-89
2023/05/25 14:09:02;;;;;;;;;;;21.70;46.40;;;;;;4992101;28;20258;-89
2023/05/25 14:11:29;;;;;;;;;;;21.70;46.10;;;;;;5009328;28;19925;-89
2023/05/25 14:13:56;;;;;;;;;;;21.60;46.50;;;;;;4990953;28;19922;-88
2023/05/25 14:16:23;;;;;;;;;;;21.90;46.00;;;;;;5005987;28;19925;-89
2023/05/25 14:18:49;;;;;;;;;;;21.80;46.80;;;;;;4988038;28;19937;-88
2023/05/25 14:21:16;;;;;;;;;;;21.60;47.20;;;;;;4992801;28;19922;-89
2023/05/25 14:23:43;;;;;;;;;;;21.90;46.90;;;;;;4992466;28;19958;-89
2023/05/25 14:26:11;;;;;;;;;;;21.60;46.80;;;;;;4991352;28;19925;-89
2023/05/25 14:28:37;;;;;;;;;;;21.10;48.10;;;;;;4998083;28;19968;-89